Time;durP1;ratioP1;P1;durP2;ratioP2;P2;SDS_P1;SDS_P2;PMS_P1;PMS_P2;Temp;Humidity;BMP_temperature;BMP_pressure;BME280_temperature;BME280_humidity;BME280_pressure;Samples;Min_cycle;Max_cycle;Signal;HPM_P1;HPM_P2
2023/10/04 00:00:15;;;;;;;;;;;;;;;19.68;54.79;102282.94;5049956;28;20004;-44
2023/10/04 00:03:01;;;;;;;;;;;;;;;19.66;54.97;102279.50;5049640;28;20303;-45
2023/10/04 00:05:26;;;;;;;;;;;;;;;19.66;54.98;102280.38;5052255;28;19997;-45
2023/10/04 00:07:52;;;;;;;;;;;;;;;19.65;54.68;102289.47;5053568;28;19957;-44
2023/10/04 00:10:18;;;;;;;;;;;;;;;19.65;54.87;102286.75;5050106;28;19921;-45
2023/10/04 00:12:43;;;;;;;;;;;;;;;19.65;54.65;102285.91;5050320;28;19917;-46
2023/10/04 00:15:09;;;;;;;;;;;;;;;19.64;54.71;102295.84;5058350;28;19916;-45
2023/10/04 00:17:35;;;;;;;;;;;;;;;19.64;54.76;102287.75;5046970;28;19909;-45
2023/10/04 00:20:03;;;;;;;;;;;;;;;19.62;54.82;102284.34;5048806;28;19920;-45
2023/10/04 00:22:28;;;;;;;;;;;;;;;19.64;55.02;102292.31;5051371;28;19912;-45
2023/10/04 00:24:53;;;;;;;;;;;;;;;19.63;54.93;102285.22;5052888;28;19912;-45
2023/10/04 00:27:18;;;;;;;;;;;;;;;19.63;54.81;102293.31;5055465;28;19913;-45
2023/10/04 00:29:44;;;;;;;;;;;;;;;19.63;54.69;102296.00;5050286;28;20291;-45
2023/10/04 00:32:09;;;;;;;;;;;;;;;19.62;54.67;102284.34;5052457;28;20003;-46
2023/10/04 00:34:34;;;;;;;;;;;;;;;19.61;54.68;102289.88;5050428;28;19920;-44
2023/10/04 00:37:00;;;;;;;;;;;;;;;19.60;54.98;102291.69;5050051;28;19908;-44
2023/10/04 00:39:25;;;;;;;;;;;;;;;19.60;54.59;102307.88;5054608;28;19920;-45
2023/10/04 00:41:53;;;;;;;;;;;;;;;19.60;54.80;102304.34;5052383;28;19912;-44
2023/10/04 00:44:18;;;;;;;;;;;;;;;19.59;54.79;102308.03;5053329;28;19909;-46
2023/10/04 00:46:45;;;;;;;;;;;;;;;19.59;54.57;102318.81;5052118;28;19912;-45
2023/10/04 00:49:11;;;;;;;;;;;;;;;19.58;54.80;102319.78;5046950;28;19913;-44
2023/10/04 00:51:36;;;;;;;;;;;;;;;19.58;54.85;102323.38;5053402;28;19909;-46
2023/10/04 00:54:10;;;;;;;;;;;;;;;19.57;54.57;102326.19;5087145;28;19991;-45
2023/10/04 00:56:36;;;;;;;;;;;;;;;19.57;54.58;102323.50;5047613;28;19913;-46
2023/10/04 00:59:03;;;;;;;;;;;;;;;19.56;54.53;102324.50;5053975;28;19915;-46
2023/10/04 01:01:28;;;;;;;;;;;;;;;19.55;54.94;102323.63;5050948;28;19917;-46
2023/10/04 01:03:54;;;;;;;;;;;;;;;19.54;54.60;102321.94;5080993;28;19962;-45
2023/10/04 01:06:19;;;;;;;;;;;;;;;19.54;54.68;102327.34;5059292;28;20414;-44
2023/10/04 01:08:47;;;;;;;;;;;;;;;19.53;54.90;102324.75;5053712;28;19913;-45
2023/10/04 01:11:12;;;;;;;;;;;;;;;19.53;54.64;102325.59;5050240;28;19948;-45
2023/10/04 01:13:39;;;;;;;;;;;;;;;19.53;54.65;102324.75;5054302;28;19931;-45
2023/10/04 01:16:08;;;;;;;;;;;;;;;19.52;54.67;102331.16;5048034;28;19972;-45
2023/10/04 01:18:34;;;;;;;;;;;;;;;19.52;54.83;102325.75;5052750;28;19918;-44
2023/10/04 01:20:59;;;;;;;;;;;;;;;19.51;54.61;102332.16;5053788;28;19977;-45
2023/10/04 01:23:24;;;;;;;;;;;;;;;19.49;54.58;102330.41;5051247;28;19952;-45
2023/10/04 01:25:49;;;;;;;;;;;;;;;19.49;54.65;102335.81;5053872;28;20394;-44
2023/10/04 01:28:26;;;;;;;;;;;;;;;19.51;54.72;102337.56;5053206;28;19980;-45
2023/10/04 01:30:52;;;;;;;;;;;;;;;19.49;54.56;102330.41;5048167;28;19913;-45
2023/10/04 01:33:18;;;;;;;;;;;;;;;19.48;54.69;102328.72;5056803;28;19923;-44
2023/10/04 01:35:49;;;;;;;;;;;;;;;19.47;54.61;102337.81;5050761;28;19913;-45
2023/10/04 01:38:14;;;;;;;;;;;;;;;19.47;54.73;102343.22;5051826;28;19915;-44
2023/10/04 01:40:42;;;;;;;;;;;;;;;19.47;54.53;102342.34;5056307;28;19913;-45
2023/10/04 01:43:15;;;;;;;;;;;;;;;19.46;54.63;102343.34;5049855;28;19915;-45
2023/10/04 01:45:43;;;;;;;;;;;;;;;19.46;54.68;102346.91;5054103;28;19962;-45
2023/10/04 01:48:08;;;;;;;;;;;;;;;19.45;54.84;102342.50;5054984;28;19909;-47
2023/10/04 01:50:33;;;;;;;;;;;;;;;19.45;54.60;102338.94;5050507;28;19917;-45
2023/10/04 01:52:58;;;;;;;;;;;;;;;19.45;54.54;102341.63;5055071;28;19916;-46
2023/10/04 01:55:24;;;;;;;;;;;;;;;19.44;54.72;102340.78;5053653;28;19952;-45
2023/10/04 01:57:49;;;;;;;;;;;;;;;19.44;54.60;102334.53;5046248;28;19933;-45
2023/10/04 02:00:17;;;;;;;;;;;;;;;19.43;54.67;102341.78;5053903;28;20007;-46
2023/10/04 02:02:43;;;;;;;;;;;;;;;19.43;54.75;102340.94;5052559;28;19912;-45
2023/10/04 02:05:10;;;;;;;;;;;;;;;19.42;54.57;102333.84;5048195;28;19931;-45
2023/10/04 02:07:41;;;;;;;;;;;;;;;19.43;54.57;102332.84;5045686;28;19909;-45
2023/10/04 02:10:09;;;;;;;;;;;;;;;19.41;54.78;102332.09;5044723;28;19939;-44
2023/10/04 02:12:34;;;;;;;;;;;;;;;19.42;54.85;102325.75;5052762;28;19924;-47
2023/10/04 02:14:59;;;;;;;;;;;;;;;19.41;54.67;102330.28;5044735;28;19915;-45
2023/10/04 02:17:24;;;;;;;;;;;;;;;19.41;54.59;102338.38;5047687;28;20008;-46
2023/10/04 02:19:49;;;;;;;;;;;;;;;19.40;54.59;102330.41;5052062;28;19912;-46
2023/10/04 02:22:15;;;;;;;;;;;;;;;19.39;54.58;102326.00;5049359;28;19909;-45
2023/10/04 02:24:40;;;;;;;;;;;;;;;19.39;54.64;102329.56;5049586;28;20319;-47
2023/10/04 02:27:09;;;;;;;;;;;;;;;19.39;54.58;102324.16;5084501;28;19909;-45
2023/10/04 02:29:34;;;;;;;;;;;;;;;19.38;54.59;102330.56;5057620;28;19916;-46
2023/10/04 02:32:06;;;;;;;;;;;;;;;19.39;54.74;102331.41;5054198;28;19915;-46
2023/10/04 02:34:32;;;;;;;;;;;;;;;19.38;54.53;102324.31;5060014;28;20387;-46
2023/10/04 02:36:57;;;;;;;;;;;;;;;19.37;54.61;102328.84;5054450;28;20417;-45
2023/10/04 02:39:24;;;;;;;;;;;;;;;19.37;54.71;102331.56;5051727;28;19908;-46
2023/10/04 02:41:49;;;;;;;;;;;;;;;19.37;54.73;102336.06;5055071;28;19917;-46
2023/10/04 02:44:17;;;;;;;;;;;;;;;19.37;54.65;102338.75;5057530;28;20000;-48
2023/10/04 02:46:44;;;;;;;;;;;;;;;19.35;54.86;102343.44;5050546;28;19908;-46
2023/10/04 02:49:09;;;;;;;;;;;;;;;19.35;54.70;102340.75;5055170;28;19999;-46
2023/10/04 02:51:34;;;;;;;;;;;;;;;19.35;54.66;102344.31;5050467;28;19956;-44
2023/10/04 02:54:00;;;;;;;;;;;;;;;19.35;54.60;102338.06;5052068;28;19912;-44
2023/10/04 02:56:25;;;;;;;;;;;;;;;19.34;54.57;102342.59;5054169;28;20344;-45
2023/10/04 02:58:50;;;;;;;;;;;;;;;19.35;54.75;102351.53;5053833;28;20491;-44
2023/10/04 03:01:20;;;;;;;;;;;;;;;19.34;54.77;102344.44;5051508;28;19908;-45
2023/10/04 03:03:46;;;;;;;;;;;;;;;19.33;54.98;102353.53;5057347;28;19995;-44
2023/10/04 03:06:11;;;;;;;;;;;;;;;19.33;54.93;102357.09;5052939;28;20462;-44
2023/10/04 03:08:37;;;;;;;;;;;;;;;19.32;54.61;102360.75;5055404;28;19913;-45
2023/10/04 03:11:03;;;;;;;;;;;;;;;19.33;54.70;102361.63;5054420;28;20174;-45
2023/10/04 03:13:30;;;;;;;;;;;;;;;19.32;54.75;102358.06;5051046;28;19913;-46
2023/10/04 03:15:56;;;;;;;;;;;;;;;19.32;54.59;102359.91;5055647;28;19916;-45
2023/10/04 03:18:25;;;;;;;;;;;;;;;19.31;54.84;102367.13;5055374;28;20417;-44
2023/10/04 03:21:16;;;;;;;;;;;;;;;19.30;54.76;102368.13;5054471;28;19919;-45
2023/10/04 03:23:42;;;;;;;;;;;;;;;19.30;54.59;102369.97;5055645;28;19947;-46
2023/10/04 03:26:07;;;;;;;;;;;;;;;19.30;54.89;102368.13;5053499;28;19909;-46
2023/10/04 03:28:33;;;;;;;;;;;;;;;19.30;54.80;102369.97;5052183;28;19913;-47
2023/10/04 03:31:01;;;;;;;;;;;;;;;19.30;54.75;102378.94;5055956;28;19928;-47
2023/10/04 03:33:26;;;;;;;;;;;;;;;19.29;54.68;102365.59;5050820;28;20078;-46
2023/10/04 03:35:53;;;;;;;;;;;;;;;19.28;54.78;102362.00;5053844;28;19909;-46
2023/10/04 03:38:20;;;;;;;;;;;;;;;19.29;54.65;102368.28;5055373;28;19909;-45
2023/10/04 03:40:45;;;;;;;;;;;;;;;19.28;54.66;102358.47;5052380;28;19913;-45
2023/10/04 03:43:11;;;;;;;;;;;;;;;19.28;54.68;102370.09;5054564;28;19916;-44
2023/10/04 03:45:40;;;;;;;;;;;;;;;19.28;54.81;102374.63;5054728;28;19940;-45
2023/10/04 03:48:17;;;;;;;;;;;;;;;19.27;54.73;102378.34;5049532;28;19971;-45
2023/10/04 03:50:46;;;;;;;;;;;;;;;19.26;54.96;102380.19;5055860;28;19915;-44
2023/10/04 03:53:12;;;;;;;;;;;;;;;19.26;54.86;102396.34;5054430;28;19916;-45
2023/10/04 03:55:38;;;;;;;;;;;;;;;19.25;54.61;102389.28;5053516;28;19909;-44
2023/10/04 03:58:04;;;;;;;;;;;;;;;19.25;54.97;102396.50;5056366;28;20293;-45
2023/10/04 04:00:32;;;;;;;;;;;;;;;19.25;54.77;102400.06;5051989;28;19920;-45
2023/10/04 04:03:00;;;;;;;;;;;;;;;19.24;54.85;102392.94;5049969;28;19916;-46
2023/10/04 04:05:25;;;;;;;;;;;;;;;19.23;54.90;102402.00;5056093;28;19909;-45
2023/10/04 04:07:51;;;;;;;;;;;;;;;19.23;54.75;102372.34;5051013;28;19909;-45
2023/10/04 04:10:19;;;;;;;;;;;;;;;19.23;54.75;102373.19;5052331;28;19917;-45
2023/10/04 04:12:46;;;;;;;;;;;;;;;19.22;54.58;102376.91;5055697;28;20403;-45
2023/10/04 04:15:12;;;;;;;;;;;;;;;19.21;54.79;102375.19;5048823;28;19995;-45
2023/10/04 04:17:38;;;;;;;;;;;;;;;19.21;54.57;102374.34;5060015;28;19916;-45
2023/10/04 04:20:18;;;;;;;;;;;;;;;19.20;54.64;102372.66;5051311;28;19959;-45
2023/10/04 04:22:54;;;;;;;;;;;;;;;19.20;54.71;102380.72;5059115;28;19980;-44
2023/10/04 04:25:19;;;;;;;;;;;;;;;19.19;54.68;102376.31;5046818;28;20026;-44
2023/10/04 04:27:45;;;;;;;;;;;;;;;19.19;54.72;102376.31;5049518;28;19956;-45
2023/10/04 04:30:16;;;;;;;;;;;;;;;19.18;54.93;102378.16;5052571;28;19908;-46
2023/10/04 04:32:43;;;;;;;;;;;;;;;19.18;54.66;102382.69;5049802;28;19916;-44
2023/10/04 04:35:08;;;;;;;;;;;;;;;19.17;54.81;102379.16;5050337;28;19927;-45
2023/10/04 04:37:38;;;;;;;;;;;;;;;19.17;54.87;102381.00;5053671;28;20520;-44
2023/10/04 04:40:08;;;;;;;;;;;;;;;19.17;54.69;102375.59;5054817;28;20127;-45
2023/10/04 04:42:35;;;;;;;;;;;;;;;19.16;54.77;102363.13;5052358;28;19909;-45
2023/10/04 04:45:02;;;;;;;;;;;;;;;19.16;54.75;102363.97;5050248;28;19909;-45
2023/10/04 04:47:28;;;;;;;;;;;;;;;19.15;54.66;102361.38;5052666;28;19912;-46
2023/10/04 04:49:59;;;;;;;;;;;;;;;19.14;54.93;102360.53;5046445;28;20011;-45
2023/10/04 04:52:24;;;;;;;;;;;;;;;19.14;54.77;102360.53;5055579;28;19916;-45
2023/10/04 04:54:49;;;;;;;;;;;;;;;19.14;54.87;102362.38;5050021;28;19962;-45
2023/10/04 04:57:15;;;;;;;;;;;;;;;19.13;54.61;102360.69;5056568;28;19915;-44
2023/10/04 04:59:42;;;;;;;;;;;;;;;19.12;54.70;102362.53;5053427;28;19909;-45
2023/10/04 05:02:08;;;;;;;;;;;;;;;19.13;54.84;102369.63;5050495;28;19909;-45
2023/10/04 05:04:33;;;;;;;;;;;;;;;19.12;54.69;102367.06;5047713;28;19916;-45
2023/10/04 05:06:58;;;;;;;;;;;;;;;19.12;54.65;102372.47;5049126;28;19971;-45
2023/10/04 05:09:24;;;;;;;;;;;;;;;19.11;54.84;102368.03;5053432;28;19913;-45
2023/10/04 05:11:49;;;;;;;;;;;;;;;19.11;54.67;102379.66;5051871;28;19920;-47
2023/10/04 05:14:14;;;;;;;;;;;;;;;19.10;54.91;102380.66;5053024;28;19917;-45
2023/10/04 05:16:39;;;;;;;;;;;;;;;19.11;54.72;102386.91;5050062;28;20314;-45
2023/10/04 05:19:07;;;;;;;;;;;;;;;19.10;54.75;102387.91;5053690;28;20023;-46
2023/10/04 05:21:34;;;;;;;;;;;;;;;19.09;54.93;102395.13;5054311;28;19920;-47
2023/10/04 05:23:59;;;;;;;;;;;;;;;19.08;54.55;102404.22;5053579;28;19928;-46
2023/10/04 05:26:25;;;;;;;;;;;;;;;19.09;54.64;102407.78;5053816;28;19909;-47
2023/10/04 05:28:51;;;;;;;;;;;;;;;19.07;54.63;102405.19;5053493;28;19909;-47
2023/10/04 05:31:16;;;;;;;;;;;;;;;19.07;54.56;102405.19;5050471;28;19920;-45
2023/10/04 05:33:41;;;;;;;;;;;;;;;19.07;54.87;102418.66;5052460;28;19909;-45
2023/10/04 05:36:06;;;;;;;;;;;;;;;19.07;54.72;102417.81;5050460;28;19909;-46
2023/10/04 05:38:33;;;;;;;;;;;;;;;19.06;54.69;102426.91;5048043;28;19908;-47
2023/10/04 05:40:58;;;;;;;;;;;;;;;19.05;54.64;102426.03;5053763;28;19908;-47
2023/10/04 05:43:23;;;;;;;;;;;;;;;19.05;54.76;102427.88;5052727;28;19935;-48
2023/10/04 05:45:49;;;;;;;;;;;;;;;19.05;54.61;102433.28;5059635;28;19952;-44
2023/10/04 05:48:15;;;;;;;;;;;;;;;19.03;54.65;102424.47;5054554;28;19920;-45
2023/10/04 05:50:40;;;;;;;;;;;;;;;19.03;54.79;102428.03;5050037;28;19984;-47
2023/10/04 05:53:07;;;;;;;;;;;;;;;19.02;54.66;102439.78;5053585;28;19925;-45
2023/10/04 05:55:35;;;;;;;;;;;;;;;19.03;54.91;102446.91;5055383;28;19999;-46
2023/10/04 05:58:02;;;;;;;;;;;;;;;19.02;54.66;102442.47;5052408;28;19913;-45
2023/10/04 06:00:28;;;;;;;;;;;;;;;18.62;54.47;102374.97;5060125;28;19917;-46
2023/10/04 06:02:53;;;;;;;;;;;;;;;19.01;54.59;102443.47;5056088;28;19939;-47
2023/10/04 06:05:19;;;;;;;;;;;;;;;19.01;54.58;102445.31;5055823;28;19909;-45
2023/10/04 06:07:46;;;;;;;;;;;;;;;19.00;54.60;102449.84;5058229;28;20307;-45
2023/10/04 06:10:12;;;;;;;;;;;;;;;19.00;54.66;102466.03;5056612;28;19921;-45
2023/10/04 06:12:40;;;;;;;;;;;;;;;19.00;54.60;102460.63;5052435;28;19919;-45
2023/10/04 06:15:10;;;;;;;;;;;;;;;19.00;54.81;102449.00;5057514;28;19909;-44
2023/10/04 06:17:38;;;;;;;;;;;;;;;18.98;54.68;102447.28;5053537;28;19994;-47
2023/10/04 06:20:22;;;;;;;;;;;;;;;18.99;54.64;102458.94;5051734;28;20040;-45
2023/10/04 06:22:47;;;;;;;;;;;;;;;18.98;54.69;102465.28;5054274;28;19916;-46
2023/10/04 06:25:15;;;;;;;;;;;;;;;18.98;54.61;102468.84;5056018;28;20219;-44
2023/10/04 06:27:40;;;;;;;;;;;;;;;18.97;54.53;102469.81;5055536;28;19948;-44
2023/10/04 06:30:06;;;;;;;;;;;;;;;18.97;54.62;102471.66;5052252;28;19920;-45
2023/10/04 06:32:37;;;;;;;;;;;;;;;18.97;54.86;102463.59;5054294;28;19928;-45
2023/10/04 06:35:03;;;;;;;;;;;;;;;18.97;54.70;102471.66;5053358;28;19920;-46
2023/10/04 06:37:28;;;;;;;;;;;;;;;18.96;54.76;102470.81;5049648;28;19912;-51
2023/10/04 06:39:54;;;;;;;;;;;;;;;18.96;54.62;102478.06;5054448;28;20256;-46
2023/10/04 06:42:19;;;;;;;;;;;;;;;18.96;54.56;102478.91;5052780;28;19913;-45
2023/10/04 06:44:45;;;;;;;;;;;;;;;18.97;54.61;102482.44;5055478;28;19962;-45
2023/10/04 06:47:10;;;;;;;;;;;;;;;18.96;54.61;102481.59;5059714;28;19991;-45
2023/10/04 06:49:35;;;;;;;;;;;;;;;18.96;54.83;102484.28;5051041;28;19909;-45
2023/10/04 06:52:00;;;;;;;;;;;;;;;18.95;54.56;102498.78;5050209;28;19939;-46
2023/10/04 06:54:26;;;;;;;;;;;;;;;18.96;54.80;102503.16;5051467;28;19909;-46
2023/10/04 06:56:51;;;;;;;;;;;;;;;18.96;54.74;102494.22;5057897;28;19979;-46
2023/10/04 06:59:17;;;;;;;;;;;;;;;18.96;54.74;102505.00;5058353;28;19939;-44
2023/10/04 07:01:43;;;;;;;;;;;;;;;18.96;54.73;102495.06;5053768;28;19916;-44
2023/10/04 07:04:08;;;;;;;;;;;;;;;18.96;54.87;102494.22;5051195;28;19913;-44
2023/10/04 07:06:33;;;;;;;;;;;;;;;18.95;54.83;102481.75;5050781;28;19919;-46
2023/10/04 07:08:59;;;;;;;;;;;;;;;18.95;54.71;102485.28;5056060;28;19923;-44
2023/10/04 07:11:25;;;;;;;;;;;;;;;18.95;54.88;102490.69;5051617;28;19936;-44
2023/10/04 07:13:51;;;;;;;;;;;;;;;18.96;54.69;102502.31;5055086;28;20352;-44
2023/10/04 07:16:16;;;;;;;;;;;;;;;18.95;54.93;102498.78;5086452;28;19955;-45
2023/10/04 07:18:41;;;;;;;;;;;;;;;18.95;54.73;102498.78;5056234;28;19908;-45
2023/10/04 07:21:07;;;;;;;;;;;;;;;18.96;54.92;102496.94;5053208;28;19916;-46
2023/10/04 07:23:32;;;;;;;;;;;;;;;18.96;54.61;102502.31;5055712;28;19916;-45
2023/10/04 07:25:57;;;;;;;;;;;;;;;18.95;54.94;102506.84;5052374;28;20405;-45
2023/10/04 07:28:24;;;;;;;;;;;;;;;18.95;54.71;102506.84;5055564;28;19920;-45
2023/10/04 07:30:50;;;;;;;;;;;;;;;18.96;54.79;102508.56;5054276;28;19916;-46
2023/10/04 07:33:16;;;;;;;;;;;;;;;18.95;54.97;102506.84;5054054;28;20372;-51
2023/10/04 07:35:41;;;;;;;;;;;;;;;18.95;54.88;102509.56;5048255;28;19912;-49
2023/10/04 07:38:07;;;;;;;;;;;;;;;18.96;54.83;102507.72;5054789;28;19920;-49
2023/10/04 07:40:32;;;;;;;;;;;;;;;18.95;54.94;102508.69;5053629;28;19919;-50
2023/10/04 07:42:59;;;;;;;;;;;;;;;18.96;55.01;102515.78;5047587;28;19909;-47
2023/10/04 07:45:28;;;;;;;;;;;;;;;18.96;54.83;102516.66;5056086;28;19966;-46
2023/10/04 07:47:53;;;;;;;;;;;;;;;18.96;54.84;102513.94;5053618;28;19956;-45
2023/10/04 07:50:25;;;;;;;;;;;;;;;18.96;54.90;102513.94;5054902;28;19909;-48
2023/10/04 07:52:54;;;;;;;;;;;;;;;18.97;54.76;102512.09;5054267;28;19916;-46
2023/10/04 07:55:20;;;;;;;;;;;;;;;18.98;54.60;102517.34;5056660;28;19913;-47
2023/10/04 07:57:52;;;;;;;;;;;;;;;18.98;54.81;102522.75;5053211;28;19920;-47
2023/10/04 08:00:18;;;;;;;;;;;;;;;18.97;54.87;102521.03;5054207;28;20417;-46
2023/10/04 08:02:49;;;;;;;;;;;;;;;18.97;54.78;102521.03;5084618;28;19980;-46
2023/10/04 08:05:44;;;;;;;;;;;;;;;18.98;54.93;102521.88;5052812;28;19989;-47
2023/10/04 08:08:09;;;;;;;;;;;;;;;18.98;55.01;102517.34;5056093;28;19915;-47
2023/10/04 08:10:35;;;;;;;;;;;;;;;19.00;54.76;102528.03;5057911;28;19953;-45
2023/10/04 08:13:01;;;;;;;;;;;;;;;19.00;54.78;102530.72;5055032;28;20001;-45
2023/10/04 08:15:27;;;;;;;;;;;;;;;19.01;54.87;102536.97;5054383;28;19924;-45
2023/10/04 08:17:54;;;;;;;;;;;;;;;19.00;54.87;102530.72;5055291;28;20023;-46
2023/10/04 08:20:19;;;;;;;;;;;;;;;19.02;54.97;102538.66;5056073;28;19923;-45
2023/10/04 08:22:45;;;;;;;;;;;;;;;19.01;54.96;102534.28;5048550;28;19969;-46
2023/10/04 08:25:10;;;;;;;;;;;;;;;19.02;54.75;102538.66;5054188;28;19912;-45
2023/10/04 08:27:37;;;;;;;;;;;;;;;19.02;54.76;102536.81;5053417;28;19913;-45
2023/10/04 08:30:04;;;;;;;;;;;;;;;19.02;55.04;102538.66;5049992;28;19948;-45
2023/10/04 08:32:29;;;;;;;;;;;;;;;19.03;54.84;102549.34;5053314;28;19999;-45
2023/10/04 08:34:54;;;;;;;;;;;;;;;19.05;55.09;102547.34;5050621;28;19917;-45
2023/10/04 08:37:20;;;;;;;;;;;;;;;19.05;55.06;102544.66;5049232;28;19909;-45
2023/10/04 08:39:45;;;;;;;;;;;;;;;19.05;54.89;102541.97;5056033;28;19913;-45
2023/10/04 08:42:10;;;;;;;;;;;;;;;19.06;54.88;102549.06;5053130;28;19936;-46
2023/10/04 08:44:35;;;;;;;;;;;;;;;19.06;54.89;102543.66;5052250;28;19940;-44
2023/10/04 08:47:03;;;;;;;;;;;;;;;19.07;55.09;102550.75;5044902;28;19909;-45
2023/10/04 08:49:29;;;;;;;;;;;;;;;19.08;54.74;102541.72;5045807;28;19944;-45
2023/10/04 08:51:57;;;;;;;;;;;;;;;19.08;54.90;102544.41;5080255;28;20004;-45
2023/10/04 08:54:23;;;;;;;;;;;;;;;19.09;55.00;102546.13;5083429;28;19917;-45
2023/10/04 08:57:13;;;;;;;;;;;;;;;19.10;55.10;102542.41;5052111;28;19980;-45
2023/10/04 08:59:39;;;;;;;;;;;;;;;19.12;55.12;102547.72;5057561;28;19913;-45
2023/10/04 09:02:07;;;;;;;;;;;;;;;19.11;54.77;102544.13;5049485;28;19924;-45
2023/10/04 09:04:32;;;;;;;;;;;;;;;19.12;55.03;102536.91;5069668;28;19966;-46
2023/10/04 09:06:57;;;;;;;;;;;;;;;19.12;55.24;102537.78;5045985;28;19917;-46
2023/10/04 09:09:23;;;;;;;;;;;;;;;19.13;55.22;102536.78;5073215;28;19913;-47
2023/10/04 09:11:49;;;;;;;;;;;;;;;19.13;55.20;102536.78;5040143;28;20388;-45
2023/10/04 09:14:15;;;;;;;;;;;;;;;19.15;55.08;102533.94;5039527;28;20284;-45
2023/10/04 09:16:40;;;;;;;;;;;;;;;19.15;55.06;102529.41;5041529;28;20383;-46
2023/10/04 09:19:09;;;;;;;;;;;;;;;19.15;54.93;102529.41;5038209;28;19912;-45
2023/10/04 09:21:36;;;;;;;;;;;;;;;19.17;54.94;102529.28;5038478;28;19971;-44
2023/10/04 09:24:14;;;;;;;;;;;;;;;19.17;55.24;102529.28;5041125;28;19909;-45
2023/10/04 09:26:48;;;;;;;;;;;;;;;19.18;55.07;102529.16;5038683;28;20261;-46
2023/10/04 09:29:15;;;;;;;;;;;;;;;19.19;55.00;102524.59;5040739;28;19944;-47
2023/10/04 09:31:50;;;;;;;;;;;;;;;19.19;55.22;102530.84;5042797;28;19921;-47
2023/10/04 09:34:15;;;;;;;;;;;;;;;19.21;54.88;102528.03;5036515;28;19955;-45
2023/10/04 09:36:43;;;;;;;;;;;;;;;19.22;54.99;102527.03;5040232;28;19916;-45
2023/10/04 09:39:09;;;;;;;;;;;;;;;19.22;55.08;102518.97;5035760;28;19916;-46
2023/10/04 09:41:41;;;;;;;;;;;;;;;19.22;55.01;102519.81;5038538;28;19917;-44
2023/10/04 09:44:25;;;;;;;;;;;;;;;19.26;55.09;102524.94;5040071;28;19909;-44
2023/10/04 09:46:54;;;;;;;;;;;;;;;19.26;55.12;102524.94;5039102;28;19916;-46
2023/10/04 09:49:23;;;;;;;;;;;;;;;19.27;55.24;102515.88;5038075;28;19915;-45
2023/10/04 09:51:48;;;;;;;;;;;;;;;19.28;55.16;102522.97;5035452;28;20031;-45
2023/10/04 09:54:16;;;;;;;;;;;;;;;19.29;54.98;102530.94;5039916;28;19951;-45
2023/10/04 09:56:42;;;;;;;;;;;;;;;19.30;55.11;102532.63;5038614;28;19909;-45
2023/10/04 09:59:07;;;;;;;;;;;;;;;19.32;54.82;102536.03;5037503;28;19909;-46
2023/10/04 10:01:33;;;;;;;;;;;;;;;19.32;55.01;102527.97;5038548;28;19983;-46
2023/10/04 10:04:02;;;;;;;;;;;;;;;19.34;54.94;102533.25;5037387;28;19915;-46
2023/10/04 10:06:28;;;;;;;;;;;;;;;19.33;55.14;102536.94;5036192;28;19947;-47
2023/10/04 10:08:56;;;;;;;;;;;;;;;19.33;55.17;102529.69;5038259;28;19984;-45
2023/10/04 10:11:22;;;;;;;;;;;;;;;19.34;54.94;102530.53;5036404;28;19929;-45
2023/10/04 10:13:47;;;;;;;;;;;;;;;19.34;54.86;102530.53;5032657;28;19919;-45
2023/10/04 10:16:12;;;;;;;;;;;;;;;19.34;55.02;102539.47;5035499;28;19909;-46
2023/10/04 10:18:38;;;;;;;;;;;;;;;19.35;54.92;102533.09;5037166;28;19936;-45
2023/10/04 10:21:04;;;;;;;;;;;;;;;19.35;55.25;102538.50;5064250;28;19918;-47
2023/10/04 10:23:29;;;;;;;;;;;;;;;19.35;54.96;102533.09;5035701;28;19968;-47
2023/10/04 10:26:13;;;;;;;;;;;;;;;19.35;55.27;102532.25;5031266;28;19913;-44
2023/10/04 10:28:38;;;;;;;;;;;;;;;19.36;54.96;102531.25;5036359;28;19913;-44
2023/10/04 10:31:05;;;;;;;;;;;;;;;19.37;54.97;102530.25;5034928;28;19920;-44
2023/10/04 10:33:30;;;;;;;;;;;;;;;19.38;55.01;102540.06;5028832;28;19916;-47
2023/10/04 10:35:59;;;;;;;;;;;;;;;19.38;55.27;102537.38;5032043;28;19952;-45
2023/10/04 10:38:27;;;;;;;;;;;;;;;19.38;55.13;102530.13;5034337;28;19912;-45
2023/10/04 10:40:53;;;;;;;;;;;;;;;19.39;55.21;102533.69;5041843;28;20287;-45
2023/10/04 10:43:18;;;;;;;;;;;;;;;19.39;54.99;102534.53;5037529;28;19920;-45
2023/10/04 10:45:43;;;;;;;;;;;;;;;19.40;55.29;102538.09;5033617;28;19917;-45
2023/10/04 10:48:11;;;;;;;;;;;;;;;19.40;55.26;102535.38;5040792;28;20438;-46
2023/10/04 10:50:40;;;;;;;;;;;;;;;19.39;55.16;102544.47;5039945;28;19909;-45
2023/10/04 10:53:10;;;;;;;;;;;;;;;19.39;55.33;102537.22;5032935;28;19920;-45
2023/10/04 10:55:35;;;;;;;;;;;;;;;18.94;55.30;102461.16;5040447;28;19914;-45
2023/10/04 10:58:01;;;;;;;;;;;;;;;19.40;55.50;102540.78;5043668;28;19909;-46
2023/10/04 11:00:31;;;;;;;;;;;;;;;19.41;55.42;102546.06;5044744;28;19915;-46
2023/10/04 11:02:57;;;;;;;;;;;;;;;19.40;55.31;102540.78;5061693;28;19913;-45
2023/10/04 11:05:22;;;;;;;;;;;;;;;19.41;55.17;102531.69;5044754;28;19913;-45
2023/10/04 11:07:48;;;;;;;;;;;;;;;19.40;55.22;102536.25;5040754;28;19910;-45
2023/10/04 11:10:16;;;;;;;;;;;;;;;19.40;55.26;102543.47;5038843;28;19917;-45
2023/10/04 11:12:44;;;;;;;;;;;;;;;19.41;55.20;102539.78;5041542;28;20299;-45
2023/10/04 11:15:10;;;;;;;;;;;;;;;19.40;55.17;102538.94;5042333;28;19914;-46
2023/10/04 11:17:36;;;;;;;;;;;;;;;19.42;55.10;102533.44;5040784;28;20016;-46
2023/10/04 11:20:09;;;;;;;;;;;;;;;19.41;55.13;102535.28;5044052;28;19937;-45
2023/10/04 11:22:36;;;;;;;;;;;;;;;19.42;55.32;102536.97;5041419;28;19917;-46
2023/10/04 11:25:01;;;;;;;;;;;;;;;19.42;55.29;102536.97;5036176;28;19913;-46
2023/10/04 11:27:27;;;;;;;;;;;;;;;19.42;55.22;102536.97;5042627;28;19916;-45
2023/10/04 11:29:52;;;;;;;;;;;;;;;19.43;55.20;102535.13;5041375;28;19909;-45
2023/10/04 11:32:17;;;;;;;;;;;;;;;19.43;55.30;102517.09;5040044;28;20415;-47
2023/10/04 11:34:43;;;;;;;;;;;;;;;19.43;55.02;102516.25;5042553;28;20329;-45
2023/10/04 11:37:09;;;;;;;;;;;;;;;19.44;55.00;102520.66;5037508;28;19916;-47
2023/10/04 11:39:34;;;;;;;;;;;;;;;19.44;55.02;102523.34;5040656;28;19913;-44
2023/10/04 11:42:03;;;;;;;;;;;;;;;19.45;55.41;102514.25;5040909;28;19935;-44
2023/10/04 11:44:29;;;;;;;;;;;;;;;19.45;55.22;102508.88;5039987;28;19920;-45
2023/10/04 11:46:55;;;;;;;;;;;;;;;19.45;55.14;102511.56;5043257;28;19913;-46
2023/10/04 11:49:21;;;;;;;;;;;;;;;19.46;55.02;102500.66;5073073;28;20008;-45
2023/10/04 11:51:46;;;;;;;;;;;;;;;19.47;55.42;102496.97;5040825;28;19920;-45
2023/10/04 11:54:12;;;;;;;;;;;;;;;19.47;55.16;102494.28;5042533;28;19921;-44
2023/10/04 11:56:40;;;;;;;;;;;;;;;19.48;55.08;102495.97;5037761;28;19910;-46
2023/10/04 11:59:05;;;;;;;;;;;;;;;19.48;55.43;102487.88;5040105;28;19959;-45
2023/10/04 12:01:30;;;;;;;;;;;;;;;19.50;55.40;102490.47;5040965;28;19909;-44
2023/10/04 12:03:59;;;;;;;;;;;;;;;19.50;55.15;102490.47;5037506;28;19992;-45
2023/10/04 12:06:24;;;;;;;;;;;;;;;19.50;55.25;102482.38;5041468;28;20079;-44
2023/10/04 12:08:50;;;;;;;;;;;;;;;19.50;55.30;102479.69;5040060;28;20016;-45
2023/10/04 12:11:21;;;;;;;;;;;;;;;19.52;55.03;102477.69;5020157;28;19913;-45
2023/10/04 12:13:47;;;;;;;;;;;;;;;19.51;55.20;102481.38;5043671;28;19909;-45
2023/10/04 12:16:13;;;;;;;;;;;;;;;19.51;54.88;102470.59;5039397;28;20040;-45
2023/10/04 12:18:38;;;;;;;;;;;;;;;19.52;55.02;102471.44;5040419;28;19971;-47
2023/10/04 12:21:03;;;;;;;;;;;;;;;19.52;55.18;102476.81;5040270;28;20399;-46
2023/10/04 12:23:30;;;;;;;;;;;;;;;19.51;55.01;102467.88;5038014;28;19917;-45
2023/10/04 12:25:55;;;;;;;;;;;;;;;19.51;54.97;102470.59;5038277;28;19917;-47
2023/10/04 12:28:20;;;;;;;;;;;;;;;19.51;55.01;102465.19;5036626;28;19916;-45
2023/10/04 12:30:48;;;;;;;;;;;;;;;19.50;54.96;102466.19;5038580;28;19909;-44
2023/10/04 12:33:13;;;;;;;;;;;;;;;19.51;55.04;102475.97;5037816;28;20453;-46